Time;durP1;ratioP1;P1;durP2;ratioP2;P2;SDS_P1;SDS_P2;PMS_P1;PMS_P2;Temp;Humidity;BMP_temperature;BMP_pressure;BME280_temperature;BME280_humidity;BME280_pressure;Samples;Min_cycle;Max_cycle;Signal;HPM_P1;HPM_P2
2021/01/24 00:05:00;;;;;;;16.37;7.37;;;;;;;2.47;94.25;98698.29;3639942;79;35026;-83
2021/01/24 00:10:01;;;;;;;18.63;9.77;;;;;;;2.52;94.16;98693.91;3632419;80;97974;-83
2021/01/24 00:15:02;;;;;;;18.48;8.48;;;;;;;2.53;94.04;98689.47;3643228;79;35082;-83
2021/01/24 00:20:05;;;;;;;15.40;7.50;;;;;;;2.57;94.10;98683.50;3634202;79;97928;-83
2021/01/24 00:25:07;;;;;;;15.03;6.87;;;;;;;2.59;93.72;98685.86;3639613;80;32779;-83
2021/01/24 00:30:10;;;;;;;13.17;6.63;;;;;;;2.56;93.88;98674.39;3569363;80;98278;-83
2021/01/24 00:35:11;;;;;;;16.93;7.30;;;;;;;2.61;93.89;98676.20;3626285;78;32939;-82
2021/01/24 00:40:12;;;;;;;15.43;6.57;;;;;;;2.59;93.58;98669.00;3633734;79;98595;-82
2021/01/24 00:45:14;;;;;;;17.37;8.40;;;;;;;2.52;93.80;98670.83;3630163;79;32646;-83
2021/01/24 00:50:15;;;;;;;18.82;9.03;;;;;;;2.59;93.83;98683.14;3625987;78;98002;-83
2021/01/24 00:55:16;;;;;;;18.83;9.77;;;;;;;2.62;93.61;98692.69;3637999;78;32769;-84
2021/01/24 01:00:18;;;;;;;19.03;8.80;;;;;;;2.62;93.71;98691.92;3639050;78;98134;-83
2021/01/24 01:05:19;;;;;;;20.77;9.50;;;;;;;2.65;93.40;98697.97;3602733;79;32694;-82
2021/01/24 01:10:20;;;;;;;19.77;8.67;;;;;;;2.62;93.39;98696.00;3630206;79;98378;-83
2021/01/24 01:15:23;;;;;;;21.70;9.23;;;;;;;2.59;93.58;98691.29;3611641;80;32731;-84
2021/01/24 01:20:25;;;;;;;21.37;10.88;;;;;;;2.61;93.74;98698.48;3578676;80;97990;-84
2021/01/24 01:25:26;;;;;;;20.20;9.37;;;;;;;2.62;93.68;98685.91;3641713;79;32750;-84
2021/01/24 01:30:27;;;;;;;20.90;9.67;;;;;;;2.64;93.64;98688.26;3601880;80;98346;-84
2021/01/24 01:35:28;;;;;;;33.30;12.40;;;;;;;2.64;93.51;98678.75;3584302;79;32931;-84
2021/01/24 01:40:29;;;;;;;21.17;10.33;;;;;;;2.63;93.57;98664.97;3621702;78;98293;-83
2021/01/24 01:45:30;;;;;;;21.17;9.40;;;;;;;2.64;93.62;98668.69;3624206;80;32705;-84
2021/01/24 01:50:31;;;;;;;20.97;9.47;;;;;;;2.68;93.53;98672.22;3621326;80;97990;-84
2021/01/24 01:55:32;;;;;;;24.80;10.83;;;;;;;2.68;93.44;98668.73;3629839;80;33332;-83
2021/01/24 02:00:33;;;;;;;31.90;13.47;;;;;;;2.72;93.45;98669.55;3612300;80;98124;-83
2021/01/24 02:06:05;;;;;;;34.73;13.50;;;;;;;2.75;93.40;98670.97;3628142;80;33261;-84
2021/01/24 02:11:27;;;;;;;24.35;10.90;;;;;;;2.72;93.34;98670.34;3613831;80;98189;-84
2021/01/24 02:16:29;;;;;;;20.67;8.67;;;;;;;2.64;93.32;98661.90;3620850;80;32697;-84
2021/01/24 02:21:33;;;;;;;21.13;9.77;;;;;;;2.65;93.46;98667.53;3601656;80;98373;-84
2021/01/24 02:26:43;;;;;;;20.57;8.20;;;;;;;2.69;93.38;98660.79;3613418;80;33546;-84
2021/01/24 02:31:46;;;;;;;20.60;9.63;;;;;;;2.68;93.28;98657.28;3621432;80;98353;-85
2021/01/24 02:36:49;;;;;;;19.27;7.97;;;;;;;2.67;93.21;98667.17;3593535;80;32673;-84
2021/01/24 02:41:50;;;;;;;20.57;8.67;;;;;;;2.65;93.10;98670.81;3610522;80;98144;-84
2021/01/24 02:46:52;;;;;;;19.43;8.43;;;;;;;2.63;92.98;98675.84;3634756;80;32676;-87
2021/01/24 02:51:53;;;;;;;17.53;8.83;;;;;;;2.61;92.93;98669.41;3603364;80;98253;-86
2021/01/24 02:56:55;;;;;;;19.87;8.60;;;;;;;2.61;92.94;98678.12;3617686;80;32745;-87
2021/01/24 03:01:56;;;;;;;18.63;7.80;;;;;;;2.60;93.04;98678.70;3619491;80;98173;-86
2021/01/24 03:06:57;;;;;;;15.23;6.80;;;;;;;2.57;92.92;98678.06;3613315;80;32612;-86
2021/01/24 03:12:01;;;;;;;14.83;6.30;;;;;;;2.55;92.97;98671.44;3619688;80;98091;-87
2021/01/24 03:17:04;;;;;;;15.67;6.83;;;;;;;2.53;92.97;98679.17;3617579;80;32594;-86
2021/01/24 03:22:06;;;;;;;14.55;6.45;;;;;;;2.54;92.93;98672.59;3613808;80;98031;-87
2021/01/24 03:27:08;;;;;;;12.13;5.53;;;;;;;2.53;92.98;98664.24;3619260;80;32695;-86
2021/01/24 03:32:09;;;;;;;14.98;6.20;;;;;;;2.53;92.94;98655.53;3594843;80;97950;-85
2021/01/24 03:37:11;;;;;;;14.10;6.33;;;;;;;2.53;93.00;98648.75;3579097;80;33559;-85
2021/01/24 03:42:12;;;;;;;13.67;6.20;;;;;;;2.55;92.97;98645.08;3639925;80;98192;-85
2021/01/24 03:47:13;;;;;;;15.83;7.10;;;;;;;2.55;92.94;98650.52;3637265;79;32760;-85
2021/01/24 03:52:14;;;;;;;13.90;6.50;;;;;;;2.55;92.92;98655.94;3638124;79;97898;-85
2021/01/24 03:57:15;;;;;;;14.93;6.47;;;;;;;2.55;92.91;98647.80;3631518;79;32698;-86
2021/01/24 04:02:21;;;;;;;15.67;7.10;;;;;;;2.56;92.88;98645.88;3635439;80;98318;-84
2021/01/24 04:07:22;;;;;;;16.73;7.57;;;;;;;2.54;92.89;98640.80;3640984;80;26319;-85
2021/01/24 04:12:23;;;;;;;17.73;7.53;;;;;;;2.55;92.92;98640.21;3635899;80;97987;-85
2021/01/24 04:17:24;;;;;;;17.47;8.60;;;;;;;2.55;92.73;98638.30;3652811;80;32825;-85
2021/01/24 04:22:25;;;;;;;20.17;9.07;;;;;;;2.56;92.81;98641.80;3634518;79;98427;-85
2021/01/24 04:27:26;;;;;;;19.67;8.60;;;;;;;2.52;92.78;98625.44;3649163;80;32802;-85
2021/01/24 04:32:27;;;;;;;20.80;8.30;;;;;;;2.53;92.84;98622.16;3627259;79;98162;-85
2021/01/24 04:37:28;;;;;;;18.90;8.47;;;;;;;2.55;92.78;98622.56;3626056;79;32692;-86
2021/01/24 04:42:30;;;;;;;18.97;7.80;;;;;;;2.47;92.70;98622.28;3610669;79;98424;-85
2021/01/24 04:47:32;;;;;;;21.00;8.87;;;;;;;2.47;92.82;98627.70;3610366;80;33838;-85
2021/01/24 04:52:33;;;;;;;18.87;8.13;;;;;;;2.45;92.87;98625.91;3626122;79;98315;-85
2021/01/24 04:57:35;;;;;;;20.77;8.57;;;;;;;2.43;92.89;98614.65;3633090;79;32681;-85
2021/01/24 05:02:36;;;;;;;21.23;9.13;;;;;;;2.44;92.94;98618.92;3632998;79;98067;-85
2021/01/24 05:07:37;;;;;;;23.30;10.73;;;;;;;2.45;92.98;98614.49;3602895;80;32704;-85
2021/01/24 05:12:45;;;;;;;19.13;8.77;;;;;;;2.46;92.80;98614.69;3626984;79;97946;-85
2021/01/24 05:17:59;;;;;;;19.80;8.53;;;;;;;2.46;92.90;98618.77;3633431;79;33192;-86
2021/01/24 05:23:01;;;;;;;17.77;8.70;;;;;;;2.49;92.84;98618.05;3622821;79;98461;-85
2021/01/24 05:28:27;;;;;;;22.73;10.70;;;;;;;2.48;92.80;98622.48;3634887;79;32731;-85
2021/01/24 05:33:31;;;;;;;19.43;9.17;;;;;;;2.45;92.63;98628.06;3607255;79;98268;-84
2021/01/24 05:38:33;;;;;;;21.90;9.10;;;;;;;2.42;92.87;98618.52;3638705;79;33210;-84
2021/01/24 05:43:41;;;;;;;23.43;10.73;;;;;;;2.45;92.90;98628.06;3639038;80;98151;-85
2021/01/24 05:48:50;;;;;;;21.13;8.50;;;;;;;2.47;92.86;98625.75;3625004;80;32656;-85
2021/01/24 05:53:51;;;;;;;18.43;9.23;;;;;;;2.49;92.85;98618.61;3640526;79;97934;-84
2021/01/24 05:59:01;;;;;;;18.43;8.17;;;;;;;2.49;92.87;98612.62;3641296;79;98334;-84
2021/01/24 06:04:02;;;;;;;20.17;9.77;;;;;;;2.49;92.86;98601.75;3564167;81;32678;-84
2021/01/24 06:09:04;;;;;;;23.60;10.30;;;;;;;2.50;92.88;98615.53;3555548;81;98088;-84
2021/01/24 06:14:07;;;;;;;24.13;10.97;;;;;;;2.47;92.78;98611.41;3671404;79;32725;-84
2021/01/24 06:19:09;;;;;;;21.57;9.73;;;;;;;2.44;92.93;98606.14;3647594;79;98120;-84
2021/01/24 06:24:20;;;;;;;23.90;9.77;;;;;;;2.48;92.90;98603.47;3588636;80;33731;-84
2021/01/24 06:29:25;;;;;;;20.73;10.17;;;;;;;2.50;92.92;98601.16;3649191;79;98452;-83
2021/01/24 06:34:38;;;;;;;23.93;9.90;;;;;;;2.48;92.81;98602.91;3636450;79;32686;-84
2021/01/24 06:39:43;;;;;;;26.60;11.60;;;;;;;2.47;92.86;98599.97;3629044;79;98022;-84
2021/01/24 06:44:44;;;;;;;23.17;11.37;;;;;;;2.51;92.82;98602.75;3629314;79;32635;-84
2021/01/24 06:49:45;;;;;;;20.87;9.40;;;;;;;2.52;92.80;98601.00;3630370;79;98424;-84
2021/01/24 06:54:48;;;;;;;22.57;9.53;;;;;;;2.48;92.86;98603.47;3631849;80;33784;-84
2021/01/24 06:59:49;;;;;;;23.83;9.93;;;;;;;2.45;92.78;98599.56;3619635;80;98225;-84
2021/01/24 07:05:23;;;;;;;27.30;11.80;;;;;;;2.43;92.94;98593.73;3637857;79;32755;-83
2021/01/24 07:10:42;;;;;;;31.48;13.35;;;;;;;2.45;93.06;98587.91;3564941;79;98156;-84
2021/01/24 07:15:49;;;;;;;34.17;13.87;;;;;;;2.49;92.99;98593.61;3630568;79;32734;-84
2021/01/24 07:20:56;;;;;;;;;;;;;;;2.46;92.97;98592.22;3626906;79;98493;-84
2021/01/24 07:25:57;;;;;;;31.75;12.28;;;;;;;2.39;93.20;98587.46;3625137;79;26609;-85
2021/01/24 07:31:01;;;;;;;31.80;12.00;;;;;;;2.41;93.24;98583.80;3632661;79;98437;-83
2021/01/24 07:36:05;;;;;;;36.70;13.37;;;;;;;2.40;93.17;98586.90;3629133;80;32740;-84
2021/01/24 07:41:06;;;;;;;34.20;12.70;;;;;;;2.40;93.27;98590.37;3617004;79;98654;-83
2021/01/24 07:46:07;;;;;;;30.53;12.17;;;;;;;2.42;93.29;98586.73;3631469;80;32656;-85
2021/01/24 07:51:08;;;;;;;34.20;14.20;;;;;;;2.44;93.29;98593.93;3628424;79;98472;-85
2021/01/24 07:56:09;;;;;;;35.93;15.27;;;;;;;2.42;93.15;98594.88;3629791;79;32785;-84
2021/01/24 08:01:13;;;;;;;34.00;14.20;;;;;;;2.46;93.20;98601.71;3632803;79;98399;-84
2021/01/24 08:06:15;;;;;;;32.33;13.97;;;;;;;2.50;93.27;98593.81;3640821;80;32777;-84
2021/01/24 08:11:16;;;;;;;32.07;15.80;;;;;;;2.53;93.18;98611.30;3637024;79;98393;-84
2021/01/24 08:16:25;;;;;;;33.60;13.53;;;;;;;2.51;92.95;98600.04;3642297;79;32666;-84
2021/01/24 08:21:27;;;;;;;34.25;13.83;;;;;;;2.48;92.74;98595.33;3623834;80;98438;-83
2021/01/24 08:26:28;;;;;;;29.63;12.17;;;;;;;2.44;92.60;98598.00;3643637;79;32691;-83
2021/01/24 08:31:29;;;;;;;29.50;13.30;;;;;;;2.40;92.57;98599.11;3619732;79;98080;-83
2021/01/24 08:36:31;;;;;;;32.90;13.67;;;;;;;2.39;92.37;98599.67;3613070;80;32805;-83
2021/01/24 08:41:36;;;;;;;34.83;13.53;;;;;;;2.33;92.56;98601.70;3611053;79;98356;-84
2021/01/24 08:46:42;;;;;;;41.77;17.63;;;;;;;2.27;92.54;98594.47;3612841;80;32724;-83
2021/01/24 08:51:50;;;;;;;37.63;15.70;;;;;;;2.28;92.56;98602.81;3613525;80;98269;-82
2021/01/24 08:56:54;;;;;;;31.50;13.57;;;;;;;2.25;92.52;98591.32;3598164;80;32774;-82
2021/01/24 09:01:56;;;;;;;34.63;14.37;;;;;;;2.28;92.53;98598.74;3602745;80;98368;-82
2021/01/24 09:07:10;;;;;;;33.27;13.40;;;;;;;2.25;92.50;98588.61;3616453;80;33312;-82
2021/01/24 09:12:15;;;;;;;34.65;14.98;;;;;;;2.27;92.47;98590.97;3604932;80;98497;-81
2021/01/24 09:17:22;;;;;;;33.80;14.80;;;;;;;2.25;92.40;98591.91;3602482;80;33373;-81
2021/01/24 09:22:23;;;;;;;;;;;;;;;2.21;92.46;98599.21;3613092;80;97941;-81
2021/01/24 09:27:24;;;;;;;35.80;14.97;;;;;;;2.23;92.60;98606.41;3604641;80;33656;-81
2021/01/24 09:32:25;;;;;;;32.13;13.93;;;;;;;2.19;92.58;98597.45;3611841;80;98166;-82
2021/01/24 09:37:28;;;;;;;31.17;13.53;;;;;;;2.22;92.67;98588.00;3611436;79;33527;-81
2021/01/24 09:42:29;;;;;;;31.02;13.40;;;;;;;2.31;92.66;98594.52;3625372;80;98267;-81
2021/01/24 09:47:30;;;;;;;32.63;14.53;;;;;;;2.29;92.60;98588.69;3639382;79;32701;-82
2021/01/24 09:52:31;;;;;;;28.67;13.30;;;;;;;2.31;92.74;98591.24;3598413;79;98287;-83
2021/01/24 09:57:32;;;;;;;40.97;16.73;;;;;;;2.30;92.60;98586.17;3626893;79;33897;-83
2021/01/24 10:02:34;;;;;;;37.83;16.10;;;;;;;2.27;92.60;98578.19;3617531;78;98072;-83
2021/01/24 10:07:35;;;;;;;35.43;14.57;;;;;;;2.29;92.70;98579.19;3621818;79;33433;-83
2021/01/24 10:12:36;;;;;;;27.73;13.23;;;;;;;2.27;92.64;98582.26;3617054;79;98061;-82
2021/01/24 10:17:37;;;;;;;35.60;17.00;;;;;;;2.29;92.73;98576.47;3622802;79;32742;-83
2021/01/24 10:22:38;;;;;;;32.57;14.63;;;;;;;2.34;92.76;98578.84;3611075;80;98290;-83
2021/01/24 10:27:39;;;;;;;30.20;14.40;;;;;;;2.40;92.66;98580.11;3583914;79;32739;-84
2021/01/24 10:32:40;;;;;;;39.13;17.40;;;;;;;2.44;92.53;98573.57;3619272;79;98551;-84
2021/01/24 10:37:41;;;;;;;37.53;18.77;;;;;;;2.44;92.48;98574.92;3628363;79;32978;-84
2021/01/24 10:42:43;;;;;;;38.43;18.93;;;;;;;2.46;92.61;98575.33;3626961;80;98388;-85
2021/01/24 10:47:44;;;;;;;26.07;13.07;;;;;;;2.50;92.54;98573.45;3629510;79;33666;-84
2021/01/24 10:52:46;;;;;;;28.07;13.67;;;;;;;2.57;92.53;98580.33;3614495;80;98751;-84
2021/01/24 10:57:49;;;;;;;29.20;14.07;;;;;;;2.53;92.48;98576.80;3631047;80;33197;-85
2021/01/24 11:02:50;;;;;;;25.20;11.67;;;;;;;2.56;92.56;98581.48;3619808;80;99080;-84
2021/01/24 11:07:52;;;;;;;20.23;8.80;;;;;;;2.61;92.38;98580.36;3618548;79;32724;-85
2021/01/24 11:12:53;;;;;;;20.40;9.93;;;;;;;2.55;92.42;98579.12;3623017;80;98211;-85
2021/01/24 11:17:56;;;;;;;23.33;10.93;;;;;;;2.57;92.44;98580.92;3626258;79;32672;-84
2021/01/24 11:22:57;;;;;;;46.13;19.57;;;;;;;2.55;92.42;98577.77;3620402;80;98276;-84
2021/01/24 11:27:58;;;;;;;47.17;20.83;;;;;;;2.47;92.47;98580.20;3632587;78;32682;-85
2021/01/24 11:33:00;;;;;;;51.73;23.77;;;;;;;2.45;92.59;98576.48;3619635;79;98615;-83
2021/01/24 11:38:07;;;;;;;54.33;24.60;;;;;;;2.51;92.46;98576.37;3610972;79;32795;-83
2021/01/24 11:43:08;;;;;;;54.57;27.53;;;;;;;2.54;92.45;98568.06;3618722;80;98324;-83
2021/01/24 11:48:09;;;;;;;48.73;22.87;;;;;;;2.52;92.42;98562.23;3634461;79;32772;-84
2021/01/24 11:53:10;;;;;;;42.20;20.30;;;;;;;2.50;92.40;98559.87;3619917;79;97938;-84
2021/01/24 11:58:11;;;;;;;42.57;21.27;;;;;;;2.52;92.27;98552.14;3613507;79;34016;-82
2021/01/24 12:03:13;;;;;;;50.03;21.70;;;;;;;2.55;92.35;98545.98;3629135;79;98244;-84
2021/01/24 12:08:17;;;;;;;42.40;19.70;;;;;;;2.57;92.35;98545.02;3626287;79;33291;-84
2021/01/24 12:13:18;;;;;;;43.60;21.00;;;;;;;2.60;92.26;98544.30;3613884;79;98384;-84
2021/01/24 12:18:19;;;;;;;51.57;24.10;;;;;;;2.61;92.22;98539.07;3625786;80;32744;-83
2021/01/24 12:23:23;;;;;;;65.83;31.23;;;;;;;2.62;92.19;98535.80;3623157;78;97944;-83
2021/01/24 12:28:25;;;;;;;70.53;33.60;;;;;;;2.63;92.12;98535.99;3627203;79;33336;-83
2021/01/24 12:33:26;;;;;;;70.33;32.07;;;;;;;2.62;92.08;98535.80;3631942;80;98554;-83
2021/01/24 12:38:27;;;;;;;81.13;34.53;;;;;;;2.66;92.33;98527.88;3638405;79;32718;-82
2021/01/24 12:43:28;;;;;;;91.83;39.53;;;;;;;2.66;92.33;98527.88;3646268;79;97930;-82
2021/01/24 12:48:29;;;;;;;67.30;31.30;;;;;;;2.67;92.35;98525.97;3646649;79;32771;-82
2021/01/24 12:53:30;;;;;;;59.50;30.17;;;;;;;2.69;92.39;98529.08;3630011;79;98581;-82
2021/01/24 12:58:32;;;;;;;54.83;29.03;;;;;;;2.67;92.27;98523.25;3645896;79;32708;-82
2021/01/24 13:03:33;;;;;;;51.10;25.20;;;;;;;2.67;92.22;98526.73;3634775;79;98221;-82
2021/01/24 13:08:34;;;;;;;45.47;21.80;;;;;;;2.66;92.33;98531.95;3639676;79;32672;-82
2021/01/24 13:13:35;;;;;;;47.33;24.40;;;;;;;2.67;92.28;98528.08;3638799;79;98942;-81
2021/01/24 13:18:36;;;;;;;34.67;16.33;;;;;;;2.69;92.27;98532.55;3642068;79;32806;-81
2021/01/24 13:23:37;;;;;;;40.60;20.83;;;;;;;2.65;92.23;98534.47;3626478;79;98243;-81
2021/01/24 13:28:38;;;;;;;80.53;45.80;;;;;;;2.67;92.30;98532.75;3646829;79;33298;-82
2021/01/24 13:33:40;;;;;;;45.93;25.73;;;;;;;2.66;92.22;98539.31;3625431;80;98539;-81
2021/01/24 13:38:41;;;;;;;86.73;45.33;;;;;;;2.65;92.30;98543.98;3618034;80;33166;-81
2021/01/24 13:43:44;;;;;;;40.40;20.93;;;;;;;2.63;92.34;98541.42;3620565;80;98718;-80
2021/01/24 13:48:45;;;;;;;39.57;22.63;;;;;;;2.59;92.30;98537.31;3625631;79;32968;-80
2021/01/24 13:53:46;;;;;;;32.40;16.50;;;;;;;2.56;92.27;98545.42;3609275;79;98470;-81
2021/01/24 13:58:47;;;;;;;36.57;17.20;;;;;;;2.60;92.40;98541.59;3621691;78;32646;-81
2021/01/24 14:03:48;;;;;;;37.60;18.32;;;;;;;2.59;92.27;98529.73;3615270;80;98450;-81
2021/01/24 14:08:49;;;;;;;42.70;22.83;;;;;;;2.62;92.39;98531.13;3617808;80;32678;-80
2021/01/24 14:13:50;;;;;;;62.23;30.67;;;;;;;2.61;92.17;98533.64;3618844;79;98395;-81
2021/01/24 14:18:51;;;;;;;60.10;26.55;;;;;;;2.59;92.35;98547.38;3615292;79;98147;-80
2021/01/24 14:23:52;;;;;;;51.83;23.77;;;;;;;2.55;92.24;98548.70;3589339;79;27452;-79
2021/01/24 14:28:54;;;;;;;53.70;23.63;;;;;;;2.48;92.27;98563.55;3584141;80;98427;-80
2021/01/24 14:33:55;;;;;;;53.50;23.53;;;;;;;2.41;92.29;98568.10;3627762;80;26615;-80
2021/01/24 14:38:58;;;;;;;48.20;22.43;;;;;;;2.30;92.44;98560.39;3618427;78;98801;-79
2021/01/24 14:43:59;;;;;;;48.60;21.57;;;;;;;2.30;92.51;98563.87;3631428;79;27498;-80
2021/01/24 14:49:00;;;;;;;46.20;21.33;;;;;;;2.30;92.48;98561.16;3564082;80;99167;-80
2021/01/24 14:54:01;;;;;;;51.07;23.80;;;;;;;2.30;92.52;98561.16;3568209;79;26679;-80
2021/01/24 14:59:02;;;;;;;52.93;25.00;;;;;;;2.33;92.39;98559.64;3621796;80;98399;-80
2021/01/24 15:04:04;;;;;;;56.13;23.23;;;;;;;2.29;92.45;98559.59;3633729;80;25989;-80
2021/01/24 15:09:06;;;;;;;51.97;22.17;;;;;;;2.30;92.45;98557.67;3620823;80;98524;-79
2021/01/24 15:14:07;;;;;;;57.73;25.33;;;;;;;2.30;92.31;98554.38;3617166;80;26414;-80
2021/01/24 15:19:08;;;;;;;43.70;20.70;;;;;;;2.29;92.31;98551.45;3615684;79;98521;-79
2021/01/24 15:24:10;;;;;;;50.60;22.43;;;;;;;2.22;92.05;98543.23;3618358;80;26535;-79
2021/01/24 15:29:14;;;;;;;43.85;20.68;;;;;;;2.15;92.24;98534.20;3612291;80;98517;-80
2021/01/24 15:34:15;;;;;;;52.30;24.07;;;;;;;2.16;92.28;98537.12;3629644;80;27427;-80
2021/01/24 15:39:17;;;;;;;41.37;19.67;;;;;;;2.12;92.16;98541.14;3603472;80;98325;-79
2021/01/24 15:44:18;;;;;;;53.27;25.87;;;;;;;2.02;92.19;98539.06;3607557;80;26554;-79
2021/01/24 15:49:19;;;;;;;49.97;21.80;;;;;;;2.03;92.35;98533.07;3604237;80;98512;-79
2021/01/24 15:54:20;;;;;;;49.27;22.13;;;;;;;2.02;92.26;98546.43;3613377;80;26435;-79
2021/01/24 15:59:21;;;;;;;37.63;18.37;;;;;;;1.96;92.46;98548.66;3609616;80;98418;-79
2021/01/24 16:04:22;;;;;;;36.73;16.77;;;;;;;1.95;92.48;98552.53;3604937;80;26751;-79
2021/01/24 16:09:24;;;;;;;65.12;27.75;;;;;;;1.92;92.55;98558.67;3585732;80;98390;-79
2021/01/24 16:14:25;;;;;;;60.57;26.17;;;;;;;1.94;92.55;98561.82;3600129;80;26945;-79
2021/01/24 16:19:26;;;;;;;41.50;17.62;;;;;;;1.95;92.63;98562.02;3599246;80;98338;-78
2021/01/24 16:24:27;;;;;;;42.50;19.97;;;;;;;1.95;92.58;98572.88;3606573;80;26501;-79
2021/01/24 16:29:28;;;;;;;44.13;20.70;;;;;;;1.95;92.62;98566.65;3599195;80;98364;-78
2021/01/24 16:34:29;;;;;;;57.87;29.13;;;;;;;1.91;92.60;98558.47;3600634;80;26014;-79
2021/01/24 16:39:32;;;;;;;52.50;23.47;;;;;;;1.81;92.62;98543.41;3601335;80;98564;-79
2021/01/24 16:44:34;;;;;;;48.07;21.13;;;;;;;1.94;92.64;98565.09;3604685;80;26041;-79
2021/01/24 16:49:35;;;;;;;51.92;21.45;;;;;;;1.95;92.59;98562.58;3600127;80;98362;-79
2021/01/24 16:54:39;;;;;;;55.07;26.30;;;;;;;1.94;92.60;98563.73;3610841;80;25966;-79
2021/01/24 16:59:39;;;;;;;75.33;30.77;;;;;;;1.93;92.62;98566.25;3578957;80;98714;-81
2021/01/24 17:04:40;;;;;;;72.70;32.13;;;;;;;1.92;92.64;98564.09;3612651;80;25961;-81
2021/01/24 17:09:42;;;;;;;57.97;26.00;;;;;;;1.93;92.61;98562.17;3595179;80;98464;-81
2021/01/24 17:14:42;;;;;;;62.20;26.33;;;;;;;1.91;92.70;98567.20;3616210;80;25959;-81
2021/01/24 17:19:43;;;;;;;59.37;24.27;;;;;;;1.93;92.75;98569.75;3588610;80;98418;-81
2021/01/24 17:24:46;;;;;;;59.13;24.23;;;;;;;1.93;92.82;98573.82;3601566;80;26317;-81
2021/01/24 17:29:47;;;;;;;63.78;27.10;;;;;;;1.86;92.85;98560.13;3601669;79;98600;-81
2021/01/24 17:34:48;;;;;;;67.10;26.17;;;;;;;1.88;92.91;98552.99;3615431;80;25949;-81
2021/01/24 17:39:52;;;;;;;53.97;23.70;;;;;;;1.91;92.89;98549.56;3610139;80;98983;-81
2021/01/24 17:44:53;;;;;;;58.33;25.90;;;;;;;1.90;92.75;98561.53;3618997;80;28444;-82
2021/01/24 17:49:57;;;;;;;70.67;28.77;;;;;;;1.87;92.98;98555.50;3613099;80;98412;-81
2021/01/24 17:54:58;;;;;;;75.37;32.47;;;;;;;1.84;93.02;98557.02;3612872;80;28120;-81
2021/01/24 17:59:59;;;;;;;67.80;28.07;;;;;;;1.82;93.07;98554.45;3611590;80;98859;-82
2021/01/24 18:05:01;;;;;;;59.30;25.63;;;;;;;1.78;93.38;98544.91;3618193;80;25978;-82
2021/01/24 18:10:03;;;;;;;56.20;23.30;;;;;;;1.76;93.38;98553.97;3601627;80;98159;-82
2021/01/24 18:15:06;;;;;;;60.70;27.73;;;;;;;1.76;93.40;98553.97;3613435;80;27520;-81
2021/01/24 18:20:08;;;;;;;56.75;25.95;;;;;;;1.78;93.62;98557.67;3627237;80;98454;-81
2021/01/24 18:25:10;;;;;;;53.43;24.40;;;;;;;1.76;93.53;98547.19;3616309;80;27509;-80
2021/01/24 18:30:13;;;;;;;68.50;30.13;;;;;;;1.80;93.47;98551.33;3602827;80;98472;-81
2021/01/24 18:35:14;;;;;;;90.27;36.77;;;;;;;1.81;93.48;98543.41;3619502;80;28817;-80
2021/01/24 18:40:15;;;;;;;86.80;35.90;;;;;;;1.80;93.47;98549.39;3605970;80;98392;-81
2021/01/24 18:45:17;;;;;;;66.83;29.93;;;;;;;1.78;93.61;98543.56;3607455;80;26449;-81
2021/01/24 18:50:18;;;;;;;72.82;35.40;;;;;;;1.76;93.59;98542.36;3607013;80;98405;-81
2021/01/24 18:55:19;;;;;;;82.23;35.83;;;;;;;1.76;93.51;98543.71;3612016;80;26087;-81
2021/01/24 19:00:21;;;;;;;73.30;35.77;;;;;;;1.75;93.51;98550.28;3608489;80;98735;-81
2021/01/24 19:05:22;;;;;;;85.33;38.90;;;;;;;1.72;93.56;98553.16;3610028;80;25944;-83
2021/01/24 19:10:23;;;;;;;76.45;36.75;;;;;;;1.68;93.58;98538.75;3608273;80;98921;-82
2021/01/24 19:15:24;;;;;;;77.53;37.63;;;;;;;1.61;93.63;98541.36;3605616;80;26185;-82
2021/01/24 19:20:26;;;;;;;71.30;33.87;;;;;;;1.61;93.69;98542.71;3611155;80;99034;-81
2021/01/24 19:25:27;;;;;;;60.57;28.77;;;;;;;1.63;93.74;98544.48;3610886;80;26184;-82
2021/01/24 19:30:31;;;;;;;76.83;32.33;;;;;;;1.62;93.78;98551.05;3610637;80;98277;-81
2021/01/24 19:35:33;;;;;;;69.73;31.47;;;;;;;1.62;93.93;98543.48;3611812;80;28649;-82
2021/01/24 19:40:34;;;;;;;73.27;31.03;;;;;;;1.63;93.86;98551.25;3605327;80;98183;-82
2021/01/24 19:45:35;;;;;;;66.13;28.50;;;;;;;1.64;93.88;98551.45;3598906;80;26094;-83
2021/01/24 19:50:36;;;;;;;62.90;27.50;;;;;;;1.64;93.79;98554.17;3606538;80;98115;-82
2021/01/24 19:55:37;;;;;;;52.37;22.13;;;;;;;1.65;93.77;98553.02;3618493;80;26493;-82
2021/01/24 20:00:38;;;;;;;53.57;24.00;;;;;;;1.65;93.79;98556.32;3611900;80;98501;-83
2021/01/24 20:05:44;;;;;;;56.87;26.17;;;;;;;1.65;93.79;98553.02;3614703;79;25953;-82
2021/01/24 20:10:43;;;;;;;90.13;33.00;;;;;;;1.65;93.80;98557.08;3605098;80;98244;-83
2021/01/24 20:15:47;;;;;;;49.73;22.40;;;;;;;1.63;93.73;98564.81;3617977;80;26211;-83
2021/01/24 20:20:47;;;;;;;51.60;23.37;;;;;;;1.64;93.73;98573.73;3601074;80;98780;-84
2021/01/24 20:25:48;;;;;;;43.33;19.23;;;;;;;1.62;93.75;98574.66;3616199;80;25961;-83
2021/01/24 20:30:52;;;;;;;46.55;19.50;;;;;;;1.58;93.81;98577.91;3603509;80;98475;-82
2021/01/24 20:35:53;;;;;;;52.83;23.20;;;;;;;1.58;93.90;98579.25;3610521;80;27706;-83
2021/01/24 20:40:54;;;;;;;44.87;20.70;;;;;;;1.54;93.88;98590.02;3609589;80;98394;-83
2021/01/24 20:45:55;;;;;;;52.73;24.07;;;;;;;1.54;93.93;98586.53;3619265;80;26266;-84
2021/01/24 20:50:59;;;;;;;41.43;19.97;;;;;;;1.52;94.05;98595.02;3613596;80;98503;-83
2021/01/24 20:56:00;;;;;;;42.90;21.13;;;;;;;1.49;94.05;98591.66;3618524;80;26781;-83
2021/01/24 21:01:02;;;;;;;45.00;20.23;;;;;;;1.49;94.13;98594.97;3620376;80;98428;-83
2021/01/24 21:06:03;;;;;;;40.10;19.47;;;;;;;1.46;94.11;98597.83;3618468;80;26391;-83
2021/01/24 21:11:06;;;;;;;43.10;21.57;;;;;;;1.44;94.16;98600.13;3603096;80;98659;-82
2021/01/24 21:16:07;;;;;;;42.43;20.97;;;;;;;1.43;94.20;98597.18;3615160;80;27644;-83
2021/01/24 21:21:08;;;;;;;42.10;19.73;;;;;;;1.42;94.26;98600.27;3595631;79;98453;-82
2021/01/24 21:26:09;;;;;;;42.50;20.83;;;;;;;1.35;94.29;98597.42;3617931;80;26592;-82
2021/01/24 21:31:10;;;;;;;37.80;17.53;;;;;;;1.33;94.44;98599.72;3623674;80;98483;-82
2021/01/24 21:36:13;;;;;;;34.93;16.83;;;;;;;1.35;94.50;98603.63;3623985;80;26737;-82
2021/01/24 21:41:18;;;;;;;41.17;17.77;;;;;;;1.37;94.50;98607.34;3607177;80;98404;-82
2021/01/24 21:46:19;;;;;;;39.87;17.17;;;;;;;1.38;94.54;98611.02;3625413;79;28383;-82
2021/01/24 21:51:20;;;;;;;40.87;17.90;;;;;;;1.36;94.53;98611.17;3612935;80;98491;-83
2021/01/24 21:56:21;;;;;;;35.67;17.13;;;;;;;1.34;94.58;98621.59;3628168;80;25989;-82
2021/01/24 22:01:22;;;;;;;38.77;16.60;;;;;;;1.33;94.68;98630.31;3608856;80;98416;-82
2021/01/24 22:06:23;;;;;;;34.57;15.13;;;;;;;1.33;94.71;98626.25;3619811;80;26485;-82
2021/01/24 22:11:24;;;;;;;30.70;14.47;;;;;;;1.31;94.76;98629.87;3624506;80;98549;-82
2021/01/24 22:16:29;;;;;;;30.30;14.43;;;;;;;1.30;94.78;98630.23;3625185;80;26062;-81
2021/01/24 22:21:29;;;;;;;28.80;14.80;;;;;;;1.23;94.77;98637.67;3611589;79;98486;-82
2021/01/24 22:26:30;;;;;;;28.37;12.03;;;;;;;1.23;94.77;98637.67;3621028;80;25941;-82
2021/01/24 22:31:31;;;;;;;25.73;12.17;;;;;;;1.20;94.97;98637.61;3609867;80;98379;-82
2021/01/24 22:36:34;;;;;;;25.50;11.47;;;;;;;1.18;95.06;98637.95;3614361;80;26264;-82
2021/01/24 22:41:35;;;;;;;25.90;11.50;;;;;;;1.16;95.09;98641.58;3628329;80;98390;-83
2021/01/24 22:46:36;;;;;;;25.60;11.60;;;;;;;1.15;95.16;98639.25;3620673;80;26146;-84
2021/01/24 22:51:37;;;;;;;24.97;12.00;;;;;;;1.15;95.23;98639.25;3616650;80;98175;-81
2021/01/24 22:56:38;;;;;;;25.20;10.67;;;;;;;1.12;95.27;98646.17;3622690;80;26467;-84
2021/01/24 23:01:40;;;;;;;22.63;10.97;;;;;;;1.09;95.38;98643.39;3621005;80;98712;-84
2021/01/24 23:06:41;;;;;;;21.83;8.67;;;;;;;1.11;95.42;98653.29;3631566;80;26302;-84
2021/01/24 23:11:42;;;;;;;17.50;8.27;;;;;;;1.08;95.35;98654.78;3630675;80;98564;-84
2021/01/24 23:16:43;;;;;;;18.23;8.60;;;;;;;1.05;95.40;98650.66;3630176;80;26377;-83
2021/01/24 23:21:46;;;;;;;21.80;9.10;;;;;;;1.02;95.52;98652.71;3626487;80;98222;-83
2021/01/24 23:26:49;;;;;;;14.30;6.77;;;;;;;0.98;95.56;98655.91;3633063;80;25997;-83
2021/01/24 23:31:51;;;;;;;15.48;8.20;;;;;;;0.98;95.65;98653.20;3616963;80;98597;-84
2021/01/24 23:36:52;;;;;;;15.10;7.50;;;;;;;0.93;95.77;98654.88;3628375;80;29133;-85